Time;durP1;ratioP1;P1;durP2;ratioP2;P2;SDS_P1;SDS_P2;PMS_P1;PMS_P2;Temp;Humidity;BMP_temperature;BMP_pressure;BME280_temperature;BME280_humidity;BME280_pressure;Samples;Min_cycle;Max_cycle;Signal;HPM_P1;HPM_P2
2023/12/23 00:01:23;;;;;;;8.68;5.35;;;;;;;2.49;57.28;92490.50;5014296;28;20039;-77
2023/12/23 00:03:48;;;;;;;16.83;9.27;;;;;;;2.57;56.71;92467.22;5014256;28;20108;-78
2023/12/23 00:06:13;;;;;;;11.95;5.28;;;;;;;3.15;56.09;92482.97;5014060;28;20033;-79
2023/12/23 00:08:39;;;;;;;9.35;5.20;;;;;;;3.33;55.31;92477.53;5015214;28;20034;-78
2023/12/23 00:11:06;;;;;;;8.73;5.85;;;;;;;2.25;57.74;92468.19;5013750;28;20088;-78
2023/12/23 00:13:31;;;;;;;7.55;5.35;;;;;;;2.50;57.10;92447.41;5013300;28;20875;-77
2023/12/23 00:15:56;;;;;;;7.80;5.95;;;;;;;2.27;57.96;92434.53;5012895;28;20037;-78
2023/12/23 00:18:24;;;;;;;7.90;5.70;;;;;;;2.02;59.19;92433.22;5013404;28;20017;-76
2023/12/23 00:20:49;;;;;;;10.07;5.32;;;;;;;2.73;57.64;92437.75;5021203;28;20341;-78
2023/12/23 00:23:15;;;;;;;11.32;6.45;;;;;;;1.92;58.35;92392.25;5011295;28;20048;-77
2023/12/23 00:25:40;;;;;;;9.85;5.75;;;;;;;2.43;57.18;92396.44;5012571;28;20579;-78
2023/12/23 00:28:06;;;;;;;8.30;6.38;;;;;;;2.30;57.68;92411.16;5013181;28;20029;-78
2023/12/23 00:30:32;;;;;;;10.52;5.82;;;;;;;1.46;60.34;92415.94;5011791;28;20089;-77
2023/12/23 00:32:57;;;;;;;11.93;6.07;;;;;;;2.23;57.99;92446.69;5014712;28;20522;-78
2023/12/23 00:35:23;;;;;;;10.18;5.70;;;;;;;2.33;57.14;92428.91;5013272;28;20098;-77
2023/12/23 00:37:49;;;;;;;9.80;5.93;;;;;;;1.97;58.60;92417.59;5013485;28;20128;-78
2023/12/23 00:40:14;;;;;;;8.23;5.15;;;;;;;2.11;57.96;92431.47;5011396;28;20021;-77
2023/12/23 00:42:40;;;;;;;6.80;4.80;;;;;;;1.71;59.08;92427.00;5011269;28;20022;-78
2023/12/23 00:45:06;;;;;;;9.20;5.85;;;;;;;2.15;57.78;92410.69;5010486;28;20033;-78
2023/12/23 00:47:32;;;;;;;8.70;4.35;;;;;;;2.08;56.45;92400.59;5012802;28;20097;-77
2023/12/23 00:49:58;;;;;;;5.03;3.35;;;;;;;1.43;58.58;92408.63;5014711;28;20128;-76
2023/12/23 00:52:23;;;;;;;10.18;5.40;;;;;;;0.97;60.35;92420.97;5016658;28;20037;-78
2023/12/23 00:54:48;;;;;;;7.13;5.05;;;;;;;0.86;61.26;92394.19;5009528;28;20040;-78
2023/12/23 00:57:14;;;;;;;9.23;5.43;;;;;;;0.55;63.81;92401.75;5014327;28;20427;-77
2023/12/23 00:59:40;;;;;;;10.57;6.68;;;;;;;0.87;64.19;92444.69;5001208;28;20049;-78
2023/12/23 01:02:05;;;;;;;8.55;5.90;;;;;;;1.17;62.87;92397.09;5016548;28;20253;-78
2023/12/23 01:04:30;;;;;;;8.23;5.72;;;;;;;1.10;64.10;92418.41;5015720;28;20156;-78
2023/12/23 01:06:56;;;;;;;7.40;5.10;;;;;;;1.17;62.86;92397.09;5030969;28;20412;-77
2023/12/23 01:09:21;;;;;;;7.63;5.28;;;;;;;1.68;62.20;92381.97;5015936;28;20025;-78
2023/12/23 01:11:46;;;;;;;8.00;5.25;;;;;;;1.46;61.96;92387.13;5019403;28;20048;-78
2023/12/23 01:14:12;;;;;;;6.40;4.75;;;;;;;1.67;62.05;92411.84;5016394;28;20034;-77
2023/12/23 01:16:37;;;;;;;7.90;5.40;;;;;;;0.34;62.83;92269.75;5018642;28;20041;-77
2023/12/23 01:19:03;;;;;;;7.10;4.25;;;;;;;1.37;62.84;92378.38;5017183;28;20119;-78
2023/12/23 01:21:29;;;;;;;5.43;3.42;;;;;;;1.14;62.30;92367.00;5018406;28;20026;-78
2023/12/23 01:23:54;;;;;;;2.00;1.70;;;;;;;0.93;61.58;92329.19;5017096;28;20056;-78
2023/12/23 01:26:19;;;;;;;2.42;1.90;;;;;;;1.61;59.68;92328.41;5020947;28;20571;-78
2023/12/23 01:28:46;;;;;;;3.13;1.88;;;;;;;2.06;58.10;92289.97;5018105;28;20094;-78
2023/12/23 01:31:11;;;;;;;3.55;2.60;;;;;;;2.29;56.88;92291.53;5018646;28;21078;-77
2023/12/23 01:33:37;;;;;;;5.68;4.90;;;;;;;2.08;57.61;92280.75;5019870;28;20778;-78
2023/12/23 01:36:05;;;;;;;1.90;1.70;;;;;;;2.43;56.59;92287.00;5016023;28;20034;-78
2023/12/23 01:38:33;;;;;;;14.13;8.60;;;;;;;2.66;56.54;92326.34;5017512;28;20025;-77
2023/12/23 01:40:59;;;;;;;6.32;3.50;;;;;;;2.37;57.02;92285.56;5018831;28;20041;-78
2023/12/23 01:43:25;;;;;;;8.07;3.97;;;;;;;1.97;58.41;92294.34;5018683;28;20512;-78
2023/12/23 01:45:56;;;;;;;4.82;3.78;;;;;;;2.40;56.90;92256.09;5017970;28;20048;-78
2023/12/23 01:48:22;;;;;;;6.07;4.00;;;;;;;2.50;56.50;92313.59;5007746;28;20073;-77
2023/12/23 01:50:49;;;;;;;8.43;4.93;;;;;;;2.26;58.29;92317.56;5018669;28;20392;-77
2023/12/23 01:53:15;;;;;;;5.13;3.55;;;;;;;2.01;58.03;92274.38;5016473;28;20638;-78
2023/12/23 01:55:40;;;;;;;3.30;1.83;;;;;;;2.69;54.58;92263.53;5018407;28;20760;-78
2023/12/23 01:58:06;;;;;;;3.75;1.80;;;;;;;3.20;51.87;92217.53;5017454;28;20680;-78
2023/12/23 02:00:32;;;;;;;3.95;2.72;;;;;;;3.75;51.02;92239.59;5018142;28;20045;-77
2023/12/23 02:02:59;;;;;;;1.42;1.30;;;;;;;4.09;48.54;92193.31;5017741;28;20137;-77
2023/12/23 02:05:24;;;;;;;5.13;2.20;;;;;;;4.21;48.16;92214.50;5017311;28;20025;-78
2023/12/23 02:07:50;;;;;;;1.58;1.20;;;;;;;4.46;47.82;92205.81;5018639;28;20080;-78
2023/12/23 02:10:16;;;;;;;1.35;1.20;;;;;;;4.66;47.17;92228.06;5018117;28;20033;-78
2023/12/23 02:13:09;;;;;;;1.30;1.20;;;;;;;4.80;46.03;92201.53;5018415;28;20017;-77
2023/12/23 02:15:36;;;;;;;1.92;1.67;;;;;;;5.04;45.83;92228.09;4997455;28;20061;-77
2023/12/23 02:18:02;;;;;;;1.40;1.17;;;;;;;5.15;45.20;92231.91;5017729;28;20056;-77
2023/12/23 02:20:28;;;;;;;2.17;1.40;;;;;;;5.24;45.71;92231.88;5015003;28;20029;-78
2023/12/23 02:22:54;;;;;;;1.50;1.00;;;;;;;5.35;44.82;92198.78;5016902;28;20396;-77
2023/12/23 02:25:21;;;;;;;4.75;1.13;;;;;;;5.45;44.25;92238.75;5008480;28;20086;-78
2023/12/23 02:27:54;;;;;;;1.65;1.52;;;;;;;5.43;44.81;92219.06;5017575;28;20029;-77
2023/12/23 02:30:22;;;;;;;2.42;1.70;;;;;;;5.35;44.94;92206.69;5016294;28;20072;-78
2023/12/23 02:32:47;;;;;;;3.50;1.35;;;;;;;5.42;45.44;92185.91;5017200;28;20114;-77
2023/12/23 02:35:13;;;;;;;1.90;1.30;;;;;;;5.06;44.03;92076.50;5016088;28;20042;-78
2023/12/23 02:37:38;;;;;;;1.42;1.05;;;;;;;5.40;45.03;92209.16;5017320;28;20029;-77
2023/12/23 02:40:04;;;;;;;1.27;1.02;;;;;;;5.42;43.11;92122.63;5017024;28;20040;-78
2023/12/23 02:42:30;;;;;;;1.75;1.17;;;;;;;5.71;43.08;92206.94;5016522;28;20031;-77
2023/12/23 02:44:55;;;;;;;1.90;1.15;;;;;;;5.51;43.93;92174.19;5017045;28;20067;-77
2023/12/23 02:47:21;;;;;;;2.15;1.00;;;;;;;5.64;44.22;92196.13;5009257;28;20394;-78
2023/12/23 02:49:46;;;;;;;0.90;0.88;;;;;;;5.37;44.31;92155.22;5015398;28;20063;-77
2023/12/23 02:52:11;;;;;;;2.85;0.90;;;;;;;5.61;43.50;92214.47;5014613;28;20041;-76
2023/12/23 02:54:37;;;;;;;2.40;0.90;;;;;;;5.55;43.80;92177.72;5015889;28;20371;-79
2023/12/23 02:57:02;;;;;;;11.63;1.83;;;;;;;5.65;44.44;92270.75;5016648;28;20049;-78
2023/12/23 02:59:28;;;;;;;4.38;3.40;;;;;;;4.50;50.72;92209.34;5016178;28;20567;-78
2023/12/23 03:01:53;;;;;;;4.70;3.22;;;;;;;3.84;53.09;92205.41;5013947;28;20033;-77
2023/12/23 03:04:19;;;;;;;4.57;3.03;;;;;;;3.33;54.57;92248.94;5015396;28;20030;-77
2023/12/23 03:06:44;;;;;;;7.32;4.05;;;;;;;1.77;59.72;92274.59;5015325;28;20474;-78
2023/12/23 03:09:09;;;;;;;8.00;3.75;;;;;;;1.75;61.26;92268.09;5017334;28;20040;-77
2023/12/23 03:11:36;;;;;;;5.05;3.55;;;;;;;1.23;63.52;92239.56;5004702;28;20029;-77
2023/12/23 03:14:01;;;;;;;4.97;4.28;;;;;;;1.27;63.70;92276.44;5017428;28;20034;-80
2023/12/23 03:16:33;;;;;;;6.25;3.78;;;;;;;0.83;66.94;92273.63;5012278;28;20041;-77
2023/12/23 03:18:59;;;;;;;9.25;5.60;;;;;;;0.51;68.82;92269.19;5015322;28;20029;-77
2023/12/23 03:21:25;;;;;;;6.75;4.15;;;;;;;1.07;66.00;92282.84;5017066;28;20187;-78
2023/12/23 03:23:50;;;;;;;5.28;3.80;;;;;;;1.00;65.80;92326.94;5014171;28;20037;-79
2023/12/23 03:26:16;;;;;;;6.55;3.72;;;;;;;0.23;70.12;92263.91;5015201;28;20044;-76
2023/12/23 03:28:41;;;;;;;5.82;3.90;;;;;;;0.89;68.24;92311.72;5017519;28;20053;-77
2023/12/23 03:31:07;;;;;;;6.30;3.55;;;;;;;0.15;69.39;92232.44;5012366;28;20278;-78
2023/12/23 03:33:32;;;;;;;8.60;4.55;;;;;;;-0.23;72.21;92224.63;5017674;28;20029;-78
2023/12/23 03:36:00;;;;;;;4.97;3.35;;;;;;;-0.18;71.05;92214.13;5014464;28;20037;-78
2023/12/23 03:38:26;;;;;;;5.47;3.88;;;;;;;-1.42;71.15;92046.81;5016727;28;20063;-79
2023/12/23 03:40:52;;;;;;;12.85;3.72;;;;;;;-0.41;72.90;92237.72;5015322;28;20038;-77
2023/12/23 03:43:17;;;;;;;6.95;3.72;;;;;;;-0.25;72.88;92220.78;5016224;28;20690;-77
2023/12/23 03:45:51;;;;;;;4.88;3.65;;;;;;;0.33;70.92;92255.13;5015965;28;20014;-76
2023/12/23 03:48:16;;;;;;;8.18;3.20;;;;;;;0.39;69.58;92261.81;5031849;28;20496;-77
2023/12/23 03:50:42;;;;;;;4.15;3.10;;;;;;;0.55;68.56;92276.19;5015436;28;20117;-78
2023/12/23 03:53:08;;;;;;;5.80;3.40;;;;;;;0.35;70.21;92264.22;5017417;28;20650;-78
2023/12/23 03:55:33;;;;;;;6.68;3.42;;;;;;;0.55;68.77;92250.03;5015471;28;20034;-76
2023/12/23 03:57:59;;;;;;;4.70;2.15;;;;;;;0.62;62.82;92218.25;5014447;28;20515;-79
2023/12/23 04:00:26;;;;;;;5.10;3.78;;;;;;;0.57;67.62;92258.38;5017633;28;20824;-79
2023/12/23 04:02:52;;;;;;;4.10;3.28;;;;;;;0.51;68.42;92246.44;5015628;28;20045;-77
2023/12/23 04:05:17;;;;;;;5.88;3.50;;;;;;;0.71;66.96;92212.06;5014972;28;20494;-79
2023/12/23 04:07:43;;;;;;;3.78;2.95;;;;;;;0.50;68.16;92204.88;5015900;28;20660;-79
2023/12/23 04:10:08;;;;;;;6.40;4.47;;;;;;;0.68;67.28;92190.94;5014285;28;20042;-77
2023/12/23 04:12:34;;;;;;;4.63;3.10;;;;;;;0.25;67.94;92224.41;5015109;28;20519;-79
2023/12/23 04:14:59;;;;;;;2.95;2.30;;;;;;;0.47;65.53;92203.63;5014035;28;20084;-79
2023/12/23 04:17:25;;;;;;;3.78;3.13;;;;;;;0.93;66.33;92197.53;5016165;28;20594;-80
2023/12/23 04:19:50;;;;;;;3.90;2.13;;;;;;;1.11;60.71;92225.44;5013860;28;20083;-79
2023/12/23 04:22:16;;;;;;;5.68;2.78;;;;;;;2.02;55.59;92239.97;5015817;28;20060;-79
2023/12/23 04:24:41;;;;;;;3.85;2.65;;;;;;;2.40;54.84;92242.22;5014082;28;20021;-78
2023/12/23 04:27:07;;;;;;;2.15;1.48;;;;;;;3.13;51.76;92288.13;5014152;28;20029;-79
2023/12/23 04:29:32;;;;;;;0.90;0.90;;;;;;;3.54;49.96;92187.91;5015057;28;20044;-76
2023/12/23 04:31:58;;;;;;;1.17;1.08;;;;;;;3.93;48.66;92198.28;5014305;28;20049;-79
2023/12/23 04:34:24;;;;;;;3.85;1.92;;;;;;;3.13;53.29;92199.59;5013589;28;20417;-79
2023/12/23 04:36:49;;;;;;;6.85;3.05;;;;;;;3.08;55.54;92201.59;5016264;28;20037;-79
2023/12/23 04:39:15;;;;;;;6.03;3.50;;;;;;;2.45;57.86;92221.88;5013933;28;20774;-79
2023/12/23 04:41:46;;;;;;;2.50;2.22;;;;;;;2.49;58.05;92227.31;5013945;28;20071;-79
2023/12/23 04:44:13;;;;;;;2.95;2.50;;;;;;;1.93;58.39;92205.06;5011222;28;20044;-78
2023/12/23 04:46:39;;;;;;;3.10;2.50;;;;;;;2.51;57.46;92236.41;5015642;28;20103;-78
2023/12/23 04:49:04;;;;;;;3.38;2.80;;;;;;;2.47;58.20;92250.44;5012896;28;20606;-79
2023/12/23 04:51:29;;;;;;;3.47;2.90;;;;;;;1.56;60.62;92236.81;5012417;28;20396;-78
2023/12/23 04:53:55;;;;;;;3.53;1.98;;;;;;;1.79;57.98;92209.53;5013844;28;20038;-78
2023/12/23 04:56:20;;;;;;;1.70;1.50;;;;;;;2.62;52.24;92233.53;5012898;28;20034;-79
2023/12/23 04:58:46;;;;;;;2.30;1.35;;;;;;;3.28;50.01;92214.91;5014186;28;20056;-77
2023/12/23 05:01:11;;;;;;;2.72;1.30;;;;;;;3.31;48.83;92127.63;5015342;28;20439;-78
2023/12/23 05:03:37;;;;;;;3.95;2.45;;;;;;;4.32;50.48;92249.19;5015222;28;20017;-79
2023/12/23 05:06:03;;;;;;;2.42;2.22;;;;;;;3.40;52.79;92288.69;5013420;28;20128;-78
2023/12/23 05:08:28;;;;;;;3.00;2.70;;;;;;;2.81;56.07;92326.75;5015597;28;20033;-79
2023/12/23 05:10:54;;;;;;;5.78;3.20;;;;;;;2.47;58.15;92340.44;5014387;28;20501;-79
2023/12/23 05:13:19;;;;;;;8.57;3.33;;;;;;;0.93;64.06;92318.72;5012894;28;20044;-78
2023/12/23 05:15:45;;;;;;;3.70;3.10;;;;;;;1.66;63.32;92342.19;5016212;28;20036;-78
2023/12/23 05:18:11;;;;;;;4.07;2.78;;;;;;;1.82;61.71;92318.25;5014556;28;20038;-79
2023/12/23 05:20:36;;;;;;;5.90;2.95;;;;;;;1.41;62.38;92292.91;5015486;28;20036;-80
2023/12/23 05:23:02;;;;;;;7.30;2.53;;;;;;;1.47;59.28;92312.66;5013816;28;20037;-77
2023/12/23 05:25:27;;;;;;;3.08;2.50;;;;;;;1.87;58.69;92284.88;5014431;28;20033;-79
2023/12/23 05:27:53;;;;;;;2.15;1.77;;;;;;;2.00;56.98;92273.59;5015706;28;20026;-79
2023/12/23 05:30:18;;;;;;;3.30;2.42;;;;;;;2.35;57.32;92276.47;5013962;28;20036;-78
2023/12/23 05:32:44;;;;;;;4.47;2.75;;;;;;;2.50;57.58;92350.31;5015680;28;20538;-79
2023/12/23 05:35:09;;;;;;;2.25;1.95;;;;;;;2.23;57.12;92329.44;5016514;28;20457;-80
2023/12/23 05:37:35;;;;;;;1.85;1.55;;;;;;;2.94;53.95;92299.63;5018944;28;20044;-77
2023/12/23 05:40:00;;;;;;;4.28;1.58;;;;;;;3.39;51.89;92271.38;5016471;28;20037;-79
2023/12/23 05:42:28;;;;;;;4.65;2.20;;;;;;;3.75;51.05;92283.50;5019791;28;20029;-78
2023/12/23 05:44:53;;;;;;;3.70;2.28;;;;;;;4.16;49.22;92247.00;5018968;28;20188;-79
2023/12/23 05:47:18;;;;;;;2.50;1.70;;;;;;;4.40;50.09;92317.63;5016008;28;20026;-79
2023/12/23 05:49:44;;;;;;;3.50;1.92;;;;;;;4.39;49.52;92276.59;5031904;28;20038;-79
2023/12/23 05:52:09;;;;;;;3.10;1.30;;;;;;;4.55;48.57;92253.94;5015020;28;20090;-78
2023/12/23 05:54:35;;;;;;;3.42;1.48;;;;;;;4.85;48.00;92275.09;5016846;28;20075;-79
2023/12/23 05:57:00;;;;;;;2.65;1.63;;;;;;;5.09;46.80;92236.59;5017860;28;20504;-80
2023/12/23 05:59:25;;;;;;;1.90;1.20;;;;;;;5.20;46.89;92288.94;5014950;28;20082;-80
2023/12/23 06:01:52;;;;;;;3.45;1.67;;;;;;;5.45;45.98;92248.53;5016928;28;20697;-79
2023/12/23 06:04:17;;;;;;;1.55;1.40;;;;;;;5.68;45.98;92299.88;5017213;28;20040;-78
2023/12/23 06:06:43;;;;;;;1.83;1.27;;;;;;;5.65;46.05;92300.53;5018185;28;20547;-78
2023/12/23 06:09:08;;;;;;;1.65;1.45;;;;;;;5.70;46.05;92276.63;5018422;28;20116;-79
2023/12/23 06:11:34;;;;;;;4.03;1.45;;;;;;;5.74;45.78;92282.78;5016041;28;20030;-78
2023/12/23 06:14:00;;;;;;;1.67;1.17;;;;;;;5.83;45.13;92262.41;5018312;28;20091;-78
2023/12/23 06:16:25;;;;;;;2.40;1.23;;;;;;;5.80;46.01;92283.38;5016419;28;20042;-79
2023/12/23 06:18:51;;;;;;;4.57;1.30;;;;;;;5.80;45.77;92283.38;5018095;28;20017;-79
2023/12/23 06:21:16;;;;;;;1.27;1.17;;;;;;;5.87;46.17;92279.13;5016181;28;20044;-79
2023/12/23 06:23:41;;;;;;;1.85;1.20;;;;;;;5.88;45.70;92287.81;5017334;28;20029;-78
2023/12/23 06:26:09;;;;;;;1.77;1.30;;;;;;;5.82;46.08;92274.03;5015729;28;20034;-79
2023/12/23 06:28:35;;;;;;;2.88;1.23;;;;;;;5.66;46.54;92286.25;5016772;28;20037;-79
2023/12/23 06:31:00;;;;;;;2.47;1.30;;;;;;;5.85;46.30;92289.25;5016203;28;20197;-79
2023/12/23 06:33:25;;;;;;;4.28;1.67;;;;;;;5.89;46.52;92295.44;5016141;28;20045;-79
2023/12/23 06:35:51;;;;;;;2.42;1.38;;;;;;;5.75;46.26;92279.06;5017319;28;20033;-79
2023/12/23 06:38:16;;;;;;;4.13;1.33;;;;;;;5.95;46.20;92294.16;5014901;28;20060;-79
2023/12/23 06:40:42;;;;;;;2.92;2.15;;;;;;;6.05;46.29;92263.19;5017397;28;20034;-79
2023/12/23 06:43:07;;;;;;;2.75;1.80;;;;;;;5.87;46.91;92244.09;5017533;28;20029;-79
2023/12/23 06:45:33;;;;;;;5.07;1.98;;;;;;;5.82;46.43;92220.53;5015271;28;20025;-78
2023/12/23 06:47:58;;;;;;;4.05;2.45;;;;;;;6.02;46.60;92261.22;5014224;28;20543;-79
2023/12/23 06:50:24;;;;;;;3.95;1.80;;;;;;;5.97;46.71;92275.34;5016339;28;20524;-79
2023/12/23 06:52:50;;;;;;;5.45;2.28;;;;;;;5.94;46.40;92271.50;5016548;28;20037;-79
2023/12/23 06:55:15;;;;;;;5.47;2.60;;;;;;;6.09;46.75;92280.69;5015540;28;20143;-80
2023/12/23 06:57:40;;;;;;;3.65;2.05;;;;;;;6.13;46.43;92294.03;5017683;28;20032;-80
2023/12/23 07:00:07;;;;;;;2.80;1.52;;;;;;;6.23;46.51;92304.22;5016512;28;20097;-78
2023/12/23 07:02:33;;;;;;;2.78;1.58;;;;;;;6.26;46.31;92311.53;5015963;28;20144;-78
2023/12/23 07:04:58;;;;;;;7.38;3.22;;;;;;;6.06;46.83;92336.00;5015680;28;20534;-79
2023/12/23 07:07:24;;;;;;;5.18;2.10;;;;;;;6.19;46.54;92329.72;5015491;28;20049;-80
2023/12/23 07:09:51;;;;;;;5.15;2.70;;;;;;;6.16;46.75;92304.75;5016634;28;20071;-77
2023/12/23 07:12:17;;;;;;;2.70;1.80;;;;;;;5.99;47.08;92318.03;5018043;28;20043;-79
2023/12/23 07:14:43;;;;;;;3.35;2.00;;;;;;;6.16;46.78;92325.88;5014888;28;20033;-79
2023/12/23 07:17:08;;;;;;;5.78;2.30;;;;;;;6.11;47.07;92317.34;5017199;28;20413;-78
2023/12/23 07:19:33;;;;;;;3.83;1.70;;;;;;;6.15;47.12;92320.88;5014759;28;20113;-79
2023/12/23 07:21:59;;;;;;;4.32;2.05;;;;;;;6.11;47.36;92312.06;5015637;28;20083;-79
2023/12/23 07:24:24;;;;;;;3.67;2.33;;;;;;;6.05;47.23;92308.06;5017159;28;20115;-78
2023/12/23 07:26:50;;;;;;;2.30;1.55;;;;;;;6.23;47.50;92323.47;5014659;28;20057;-79
2023/12/23 07:29:17;;;;;;;3.67;1.50;;;;;;;6.17;47.21;92294.94;5017008;28;20111;-79
2023/12/23 07:31:42;;;;;;;3.05;2.03;;;;;;;6.20;47.35;92326.00;5015278;28;20145;-78
2023/12/23 07:34:08;;;;;;;3.20;2.83;;;;;;;6.55;46.40;92343.16;5017442;28;20610;-78
2023/12/23 07:36:33;;;;;;;2.75;1.90;;;;;;;6.55;46.77;92326.53;5012948;28;20292;-78
2023/12/23 07:38:59;;;;;;;5.05;2.38;;;;;;;6.51;46.73;92352.78;5015404;28;20065;-79
2023/12/23 07:41:24;;;;;;;3.30;1.85;;;;;;;6.56;47.20;92352.59;5015803;28;20042;-78
2023/12/23 07:43:50;;;;;;;5.15;2.15;;;;;;;6.66;46.80;92341.63;5015408;28;20041;-80
2023/12/23 07:46:15;;;;;;;2.35;1.65;;;;;;;6.58;46.96;92347.78;5013254;28;20524;-80
2023/12/23 07:48:41;;;;;;;3.20;1.52;;;;;;;6.72;46.54;92343.00;5016740;28;20176;-79
2023/12/23 07:51:07;;;;;;;4.45;2.13;;;;;;;6.76;46.71;92353.69;5012811;28;20052;-79
2023/12/23 07:53:33;;;;;;;3.13;1.38;;;;;;;6.70;46.84;92350.44;5030879;28;20045;-78
2023/12/23 07:55:58;;;;;;;3.15;1.55;;;;;;;6.56;46.83;92334.09;5013255;28;20508;-79
2023/12/23 07:58:24;;;;;;;3.53;1.50;;;;;;;6.66;47.31;92359.34;5016896;28;20499;-79
2023/12/23 08:00:49;;;;;;;2.47;1.42;;;;;;;6.66;47.08;92391.81;5013016;28;20148;-79
2023/12/23 08:03:15;;;;;;;3.70;1.73;;;;;;;6.73;46.74;92372.81;5015898;28;20504;-78
2023/12/23 08:05:40;;;;;;;1.90;1.70;;;;;;;6.79;46.74;92393.47;5014693;28;20031;-79
2023/12/23 08:08:09;;;;;;;2.95;1.65;;;;;;;6.74;47.02;92388.38;5016277;28;20404;-79
2023/12/23 08:10:34;;;;;;;2.75;1.48;;;;;;;6.83;46.14;92399.63;5010145;28;20465;-79
2023/12/23 08:12:59;;;;;;;3.25;1.50;;;;;;;6.78;46.88;92406.97;5014616;28;20120;-79
2023/12/23 08:15:25;;;;;;;2.58;1.40;;;;;;;6.93;46.33;92416.97;5014889;28;20048;-79
2023/12/23 08:17:50;;;;;;;3.38;1.50;;;;;;;6.94;46.81;92407.16;5014409;28;20128;-79
2023/12/23 08:20:15;;;;;;;2.33;1.80;;;;;;;7.04;47.01;92406.78;5015787;28;20046;-79
2023/12/23 08:22:44;;;;;;;2.17;1.60;;;;;;;7.02;46.47;92435.38;5014217;28;20573;-79
2023/12/23 08:25:10;;;;;;;2.38;1.27;;;;;;;6.89;46.08;92425.88;5014992;28;20469;-79
2023/12/23 08:27:39;;;;;;;4.53;1.73;;;;;;;6.99;46.48;92457.97;5015905;28;20025;-78
2023/12/23 08:30:06;;;;;;;2.30;1.35;;;;;;;7.18;46.88;92454.84;5013910;28;20061;-79
2023/12/23 08:32:32;;;;;;;4.55;1.60;;;;;;;7.18;46.84;92458.28;5015235;28;20040;-78
2023/12/23 08:34:58;;;;;;;3.72;1.83;;;;;;;7.21;47.10;92501.78;5012085;28;20056;-79
2023/12/23 08:37:23;;;;;;;2.67;1.65;;;;;;;7.25;47.25;92470.97;5014728;28;20427;-79
2023/12/23 08:39:50;;;;;;;2.47;1.83;;;;;;;7.23;48.26;92512.84;5014256;28;20091;-79
2023/12/23 08:42:15;;;;;;;5.38;1.88;;;;;;;7.23;48.65;92537.41;5013103;28;20514;-79
2023/12/23 08:44:41;;;;;;;5.35;2.17;;;;;;;7.35;48.42;92522.69;5014274;28;20041;-80
2023/12/23 08:47:06;;;;;;;5.13;2.55;;;;;;;7.29;48.25;92545.91;5016486;28;20449;-79
2023/12/23 08:49:32;;;;;;;7.93;3.60;;;;;;;7.20;47.88;92548.63;5008516;28;20119;-79
2023/12/23 08:51:57;;;;;;;3.88;2.10;;;;;;;7.11;47.55;92520.69;5014631;28;20136;-79
2023/12/23 08:54:22;;;;;;;5.95;2.60;;;;;;;7.29;48.19;92545.91;5011646;28;20029;-78
2023/12/23 08:56:48;;;;;;;2.67;1.73;;;;;;;7.30;47.39;92558.81;5014238;28;20040;-78
2023/12/23 08:59:13;;;;;;;4.82;2.03;;;;;;;7.22;47.68;92587.97;5014375;28;20524;-78
2023/12/23 09:01:39;;;;;;;8.45;3.58;;;;;;;6.87;48.09;92545.09;5014503;28;20029;-79
2023/12/23 09:04:04;;;;;;;7.50;2.60;;;;;;;7.03;48.51;92596.31;5014143;28;20463;-78
2023/12/23 09:06:29;;;;;;;6.93;2.45;;;;;;;7.24;48.43;92630.72;5013343;28;20144;-78
2023/12/23 09:08:57;;;;;;;6.93;2.30;;;;;;;7.19;47.89;92630.91;5013016;28;20030;-79
2023/12/23 09:11:23;;;;;;;4.95;2.30;;;;;;;7.02;49.42;92639.72;5016487;28;20040;-79
2023/12/23 09:13:48;;;;;;;4.78;2.72;;;;;;;6.89;50.40;92621.44;5017547;28;20036;-78
2023/12/23 09:16:14;;;;;;;7.43;2.80;;;;;;;6.86;51.17;92615.69;5017138;28;20026;-78
2023/12/23 09:18:39;;;;;;;3.63;2.60;;;;;;;6.83;51.77;92644.63;5018751;28;20079;-78
2023/12/23 09:21:05;;;;;;;4.93;2.42;;;;;;;6.54;52.81;92640.06;5017696;28;20029;-78
2023/12/23 09:23:31;;;;;;;7.80;3.08;;;;;;;6.39;52.94;92622.84;5016658;28;20140;-79
2023/12/23 09:25:56;;;;;;;4.32;2.70;;;;;;;6.44;53.58;92645.69;5017088;28;20504;-78
2023/12/23 09:28:21;;;;;;;4.82;3.25;;;;;;;6.43;53.65;92663.38;5014337;28;20520;-79
2023/12/23 09:30:47;;;;;;;4.78;2.80;;;;;;;6.33;53.86;92676.13;5017892;28;20047;-78
2023/12/23 09:33:13;;;;;;;6.05;3.08;;;;;;;6.28;54.73;92676.31;5017640;28;20107;-78
2023/12/23 09:35:38;;;;;;;7.78;3.47;;;;;;;6.16;54.95;92699.94;5017277;28;20030;-79
2023/12/23 09:38:03;;;;;;;4.22;3.17;;;;;;;5.82;56.05;92669.03;5017194;28;20033;-78
2023/12/23 09:40:29;;;;;;;3.63;2.55;;;;;;;5.63;55.70;92685.13;5018439;28;20033;-79
2023/12/23 09:42:54;;;;;;;3.30;2.40;;;;;;;5.63;55.84;92697.56;5018596;28;20032;-78
2023/12/23 09:45:21;;;;;;;4.30;2.70;;;;;;;5.35;56.31;92692.53;5016037;28;20037;-79
2023/12/23 09:47:47;;;;;;;2.88;2.40;;;;;;;5.13;57.07;92727.69;5016303;28;20041;-77
2023/12/23 09:50:12;;;;;;;3.63;2.63;;;;;;;5.03;57.72;92769.34;5017457;28;20049;-78
2023/12/23 09:52:39;;;;;;;5.60;2.35;;;;;;;4.64;60.34;92804.31;5016040;28;20112;-79
2023/12/23 09:55:09;;;;;;;4.05;2.20;;;;;;;4.37;63.68;92770.19;5032748;28;20522;-78
2023/12/23 09:57:35;;;;;;;3.45;3.00;;;;;;;4.04;65.46;92743.28;5018189;28;20017;-78
2023/12/23 10:00:01;;;;;;;3.15;2.13;;;;;;;3.96;67.58;92786.09;5018003;28;20037;-79
2023/12/23 10:02:26;;;;;;;4.45;2.22;;;;;;;3.78;68.50;92778.03;5017296;28;20412;-79
2023/12/23 10:04:52;;;;;;;6.88;3.35;;;;;;;3.70;69.63;92794.53;5015789;28;20068;-78
2023/12/23 10:07:17;;;;;;;4.03;2.55;;;;;;;3.62;70.55;92813.63;5014963;28;20053;-78
2023/12/23 10:09:42;;;;;;;3.67;2.35;;;;;;;3.39;70.19;92780.41;5017520;28;20045;-79
2023/12/23 10:12:08;;;;;;;3.72;2.22;;;;;;;3.20;72.05;92788.41;5017676;28;20034;-78
2023/12/23 10:14:33;;;;;;;7.18;3.63;;;;;;;3.22;72.54;92786.28;5015206;28;20142;-78
2023/12/23 10:16:59;;;;;;;3.88;2.75;;;;;;;3.36;73.28;92823.06;5015791;28;20400;-78
2023/12/23 10:19:24;;;;;;;8.65;3.33;;;;;;;3.21;74.19;92845.16;5018328;28;20396;-79
2023/12/23 10:21:50;;;;;;;3.80;2.38;;;;;;;3.28;73.91;92832.38;5014408;28;20025;-79
2023/12/23 10:24:16;;;;;;;3.25;2.63;;;;;;;3.46;72.36;92866.78;5017004;28;20045;-78
2023/12/23 10:26:42;;;;;;;9.98;2.40;;;;;;;3.34;71.95;92868.03;5017247;28;20455;-78
2023/12/23 10:29:09;;;;;;;5.85;2.90;;;;;;;3.30;71.81;92866.28;5016252;28;20443;-78
2023/12/23 10:31:36;;;;;;;3.53;2.40;;;;;;;3.14;71.90;92878.88;5008226;28;20050;-79
2023/12/23 10:34:11;;;;;;;3.25;2.85;;;;;;;3.14;72.08;92886.00;5016966;28;20036;-78
2023/12/23 10:36:40;;;;;;;3.05;2.15;;;;;;;2.93;72.12;92872.44;5019595;28;20026;-78
2023/12/23 10:39:16;;;;;;;1.63;1.52;;;;;;;3.13;71.20;92877.34;5017503;28;20041;-77
2023/12/23 10:41:42;;;;;;;2.22;2.03;;;;;;;3.14;71.47;92884.16;5017643;28;20041;-78
2023/12/23 10:44:10;;;;;;;2.97;1.52;;;;;;;3.11;70.81;92897.09;5013492;28;20039;-78
2023/12/23 10:46:36;;;;;;;1.60;1.40;;;;;;;2.91;71.06;92877.97;5018001;28;20124;-77
2023/12/23 10:49:02;;;;;;;3.20;1.73;;;;;;;2.83;71.97;92910.16;5015780;28;20029;-78
2023/12/23 10:51:29;;;;;;;1.50;1.40;;;;;;;2.80;71.95;92925.69;5015533;28;20273;-79
2023/12/23 10:53:56;;;;;;;2.63;1.73;;;;;;;2.73;72.07;92915.56;5016667;28;20030;-78
2023/12/23 10:56:25;;;;;;;22.15;4.25;;;;;;;2.58;71.61;92888.75;5016278;28;20030;-78
2023/12/23 10:58:51;;;;;;;1.73;1.45;;;;;;;2.62;72.21;92900.22;5015247;28;20084;-78
2023/12/23 11:01:20;;;;;;;3.30;2.20;;;;;;;2.65;72.82;92913.56;5015874;28;20041;-78
2023/12/23 11:03:51;;;;;;;2.75;2.03;;;;;;;2.73;73.15;92914.78;5016811;28;20025;-77
2023/12/23 11:06:18;;;;;;;2.63;2.15;;;;;;;2.79;73.09;92922.25;5008513;28;20064;-78
2023/12/23 11:08:46;;;;;;;2.90;2.67;;;;;;;2.66;72.69;92893.34;5016205;28;20041;-79
2023/12/23 11:11:12;;;;;;;3.65;2.63;;;;;;;2.88;72.34;92885.66;5017794;28;20037;-78
2023/12/23 11:13:37;;;;;;;4.25;2.60;;;;;;;2.91;72.61;92911.34;5005163;28;20037;-78
2023/12/23 11:16:03;;;;;;;2.38;1.88;;;;;;;2.95;70.90;92886.03;5016650;28;20572;-79
2023/12/23 11:18:29;;;;;;;3.00;2.45;;;;;;;3.04;70.79;92863.31;5016077;28;20055;-78
2023/12/23 11:20:54;;;;;;;2.22;1.65;;;;;;;3.28;69.18;92895.47;5016725;28;20192;-78
2023/12/23 11:23:33;;;;;;;2.53;2.10;;;;;;;3.35;68.24;92895.88;5011686;28;20438;-79
2023/12/23 11:25:58;;;;;;;2.03;1.80;;;;;;;3.49;65.35;92895.09;5013996;28;20049;-79
2023/12/23 11:28:25;;;;;;;3.10;2.63;;;;;;;3.42;65.46;92876.31;5012862;28;20453;-79
2023/12/23 11:31:01;;;;;;;4.20;2.72;;;;;;;3.61;65.60;92874.38;5017588;28;20084;-79
2023/12/23 11:33:27;;;;;;;;;;;;;;;3.71;66.06;92877.59;5011685;28;20095;-78
2023/12/23 11:35:57;;;;;;;3.33;2.22;;;;;;;3.52;65.80;92863.00;5013869;28;19924;-78